Time;durP1;ratioP1;P1;durP2;ratioP2;P2;SDS_P1;SDS_P2;PMS_P1;PMS_P2;Temp;Humidity;BMP_temperature;BMP_pressure;BME280_temperature;BME280_humidity;BME280_pressure;Samples;Min_cycle;Max_cycle;Signal;HPM_P1;HPM_P2
2023/09/03 00:00:46;;;;;;;9.15;5.60;;;;;;;15.13;100.00;102512.78;4986296;28;20042;-85
2023/09/03 00:03:12;;;;;;;6.43;4.38;;;;;;;15.22;100.00;102514.22;4979571;28;20510;-85
2023/09/03 00:05:37;;;;;;;7.22;4.97;;;;;;;15.21;100.00;102518.22;4988748;28;20042;-86
2023/09/03 00:08:04;;;;;;;7.47;4.80;;;;;;;15.21;100.00;102515.41;4978142;28;20042;-85
2023/09/03 00:10:30;;;;;;;6.35;4.13;;;;;;;15.10;100.00;102516.38;4974763;28;20034;-85
2023/09/03 00:12:55;;;;;;;6.57;4.97;;;;;;;15.16;100.00;102526.16;4991343;28;20037;-85
2023/09/03 00:15:22;;;;;;;5.97;4.20;;;;;;;15.12;100.00;102536.56;4979697;28;20046;-85
2023/09/03 00:17:47;;;;;;;7.80;5.47;;;;;;;15.11;100.00;102524.44;4971211;28;20045;-85
2023/09/03 00:20:13;;;;;;;6.15;4.70;;;;;;;15.09;100.00;102532.44;4975213;28;20035;-85
2023/09/03 00:22:39;;;;;;;9.55;5.35;;;;;;;15.05;100.00;102528.72;4987115;28;20030;-84
2023/09/03 00:25:05;;;;;;;6.60;4.32;;;;;;;15.06;100.00;102533.19;4981992;28;20447;-85
2023/09/03 00:27:31;;;;;;;7.55;5.13;;;;;;;15.04;100.00;102544.03;4991713;28;20034;-84
2023/09/03 00:29:57;;;;;;;8.02;4.35;;;;;;;15.08;100.00;102542.09;4972967;28;20034;-84
2023/09/03 00:32:22;;;;;;;7.25;4.70;;;;;;;15.03;100.00;102539.56;4979117;28;20034;-82
2023/09/03 00:34:47;;;;;;;7.65;5.32;;;;;;;15.01;100.00;102547.56;4974036;28;20031;-87
2023/09/03 00:37:13;;;;;;;6.38;4.50;;;;;;;14.97;100.00;102535.41;4981525;28;20042;-86
2023/09/03 00:39:38;;;;;;;8.38;4.50;;;;;;;14.99;100.00;102524.59;4972412;28;20030;-85
2023/09/03 00:42:03;;;;;;;6.18;3.97;;;;;;;14.89;100.00;102519.53;4972095;28;20101;-85
2023/09/03 00:44:29;;;;;;;7.38;4.75;;;;;;;14.89;100.00;102534.44;4975144;28;20042;-83
2023/09/03 00:46:54;;;;;;;5.90;5.07;;;;;;;14.90;100.00;102527.59;4975732;28;20035;-84
2023/09/03 00:49:23;;;;;;;9.13;5.18;;;;;;;14.86;100.00;102515.41;4974292;28;20033;-83
2023/09/03 00:51:53;;;;;;;7.80;5.03;;;;;;;14.80;100.00;102526.19;4979392;28;20034;-83
2023/09/03 00:54:21;;;;;;;7.60;5.22;;;;;;;14.90;100.00;102519.13;4977975;28;20023;-83
2023/09/03 00:56:49;;;;;;;9.70;5.60;;;;;;;14.89;100.00;102522.34;4990463;28;20487;-83
2023/09/03 00:59:15;;;;;;;8.63;5.35;;;;;;;14.87;100.00;102513.44;4992691;28;20032;-85
2023/09/03 01:01:42;;;;;;;9.50;5.35;;;;;;;14.67;100.00;102518.19;4972668;28;20113;-84
2023/09/03 01:04:07;;;;;;;7.72;5.35;;;;;;;14.78;100.00;102534.19;4978697;28;20502;-85
2023/09/03 01:06:33;;;;;;;8.98;5.18;;;;;;;14.81;100.00;102539.06;4980033;28;20038;-84
2023/09/03 01:08:58;;;;;;;9.82;5.63;;;;;;;14.73;100.00;102530.81;4974715;28;20089;-84
2023/09/03 01:11:41;;;;;;;8.75;6.05;;;;;;;14.74;100.00;102529.66;4991382;28;20034;-84
2023/09/03 01:14:07;;;;;;;7.90;4.80;;;;;;;14.78;100.00;102537.00;4984884;28;20066;-84
2023/09/03 01:16:37;;;;;;;8.15;5.95;;;;;;;14.70;100.00;102532.38;5001402;28;20465;-84
2023/09/03 01:19:21;;;;;;;8.38;5.93;;;;;;;14.73;100.00;102530.81;5001572;28;20085;-84
2023/09/03 01:22:12;;;;;;;8.55;5.30;;;;;;;14.73;100.00;102525.19;4998418;28;20053;-84
2023/09/03 01:25:05;;;;;;;8.10;5.22;;;;;;;14.64;100.00;102529.00;5020483;28;20048;-84
2023/09/03 01:27:46;;;;;;;9.05;5.60;;;;;;;14.71;100.00;102538.81;4995106;28;20243;-84
2023/09/03 01:30:14;;;;;;;8.82;5.35;;;;;;;14.63;100.00;102529.38;5005983;28;20394;-84
2023/09/03 01:32:40;;;;;;;8.45;5.47;;;;;;;14.64;100.00;102533.84;5011976;28;20088;-84
2023/09/03 01:35:07;;;;;;;9.35;5.88;;;;;;;14.68;100.00;102546.03;5007210;28;20029;-85
2023/09/03 01:37:32;;;;;;;10.05;5.90;;;;;;;14.62;100.00;102553.94;4998448;28;20041;-84
2023/09/03 01:39:58;;;;;;;8.88;5.70;;;;;;;14.56;100.00;102543.31;5003915;28;20030;-84
2023/09/03 01:42:23;;;;;;;8.02;5.32;;;;;;;14.62;100.00;102548.28;4997497;28;20021;-84
2023/09/03 01:44:48;;;;;;;8.00;5.65;;;;;;;14.63;100.00;102543.47;5002667;28;20132;-84
2023/09/03 01:47:30;;;;;;;9.27;6.32;;;;;;;14.58;100.00;102546.56;5001542;28;20021;-84
2023/09/03 01:50:06;;;;;;;9.23;5.93;;;;;;;14.56;100.00;102526.41;5007143;28;20041;-84
2023/09/03 01:52:39;;;;;;;11.20;6.68;;;;;;;14.57;100.00;102528.03;5004010;28;20275;-85
2023/09/03 01:55:11;;;;;;;8.90;5.40;;;;;;;14.52;100.00;102519.81;5017152;28;20088;-85
2023/09/03 01:58:05;;;;;;;9.00;6.10;;;;;;;14.56;100.00;102526.41;5003619;28;20030;-84
2023/09/03 02:00:31;;;;;;;9.20;5.95;;;;;;;14.53;100.00;102513.81;4997478;28;20136;-85
2023/09/03 02:02:58;;;;;;;12.20;6.43;;;;;;;14.57;100.00;102506.31;4999216;28;20037;-85
2023/09/03 02:05:24;;;;;;;10.57;6.75;;;;;;;14.48;100.00;102502.00;5005690;28;20088;-85
2023/09/03 02:07:49;;;;;;;9.93;6.65;;;;;;;14.58;100.00;102502.28;5006171;28;20030;-84
2023/09/03 02:10:16;;;;;;;9.70;6.32;;;;;;;14.53;100.00;102482.03;5018252;28;20092;-85
2023/09/03 02:12:41;;;;;;;9.07;6.13;;;;;;;14.57;100.00;102485.78;5015465;28;20037;-84
2023/09/03 02:15:07;;;;;;;9.88;6.30;;;;;;;14.50;100.00;102489.19;4989207;28;20050;-85
2023/09/03 02:17:33;;;;;;;9.88;6.40;;;;;;;14.50;100.00;102482.75;4987033;28;20028;-84
2023/09/03 02:19:58;;;;;;;10.73;6.78;;;;;;;14.48;100.00;102491.56;4992749;28;20108;-84
2023/09/03 02:22:23;;;;;;;10.57;6.70;;;;;;;14.52;100.00;102508.56;4982808;28;20026;-84
2023/09/03 02:24:52;;;;;;;10.10;6.50;;;;;;;14.55;100.00;102507.84;4985047;28;20030;-84
2023/09/03 02:27:17;;;;;;;12.15;6.97;;;;;;;14.50;100.00;102510.91;4985024;28;20566;-84
2023/09/03 02:29:43;;;;;;;8.32;5.72;;;;;;;14.51;100.00;102504.91;4982875;28;20117;-84
2023/09/03 02:32:08;;;;;;;8.75;6.20;;;;;;;14.46;100.00;102481.84;4988558;28;20442;-84
2023/09/03 02:34:34;;;;;;;9.02;5.88;;;;;;;14.32;100.00;102488.75;4985932;28;20065;-84
2023/09/03 02:36:59;;;;;;;10.50;7.25;;;;;;;14.41;100.00;102483.75;4984769;28;20032;-84
2023/09/03 02:39:25;;;;;;;10.05;6.45;;;;;;;14.39;100.00;102480.47;4989557;28;20030;-83
2023/09/03 02:41:51;;;;;;;12.05;6.72;;;;;;;14.35;100.00;102487.22;4979381;28;20037;-84
2023/09/03 02:44:17;;;;;;;10.05;6.40;;;;;;;14.43;100.00;102489.03;4982965;28;20482;-83
2023/09/03 02:46:42;;;;;;;11.73;7.13;;;;;;;14.45;100.00;102483.84;4983857;28;20041;-83
2023/09/03 02:49:09;;;;;;;10.23;6.93;;;;;;;14.28;100.00;102476.59;4981638;28;20029;-83
2023/09/03 02:51:35;;;;;;;10.05;6.30;;;;;;;14.44;100.00;102491.47;4987388;28;20041;-83
2023/09/03 02:54:01;;;;;;;11.73;6.55;;;;;;;14.33;100.00;102486.75;4982434;28;20386;-83
2023/09/03 02:56:26;;;;;;;10.50;6.10;;;;;;;14.35;100.00;102490.84;4986968;28;20561;-83
2023/09/03 02:58:51;;;;;;;11.40;6.57;;;;;;;14.30;100.00;102490.31;4983944;28;20026;-83
2023/09/03 03:01:19;;;;;;;11.80;6.72;;;;;;;14.25;100.00;102499.84;4982003;28;20549;-83
2023/09/03 03:03:45;;;;;;;12.20;6.10;;;;;;;14.28;100.00;102516.03;4983592;28;20038;-83
2023/09/03 03:06:11;;;;;;;12.90;7.53;;;;;;;14.32;100.00;102516.94;4981149;28;20072;-83
2023/09/03 03:08:36;;;;;;;12.15;7.00;;;;;;;14.38;100.00;102514.66;4996562;28;20469;-83
2023/09/03 03:11:05;;;;;;;8.82;6.22;;;;;;;14.32;100.00;102507.66;4984294;28;20029;-83
2023/09/03 03:13:31;;;;;;;10.60;6.25;;;;;;;14.25;100.00;102505.47;4989393;28;20115;-83
2023/09/03 03:15:56;;;;;;;10.65;6.65;;;;;;;14.28;100.00;102516.03;5005962;28;20469;-83
2023/09/03 03:18:22;;;;;;;10.20;6.93;;;;;;;14.29;100.00;102520.47;5019192;28;20049;-83
2023/09/03 03:20:47;;;;;;;9.82;5.70;;;;;;;14.22;100.00;102523.09;5002919;28;20033;-83
2023/09/03 03:23:12;;;;;;;10.68;6.53;;;;;;;14.18;100.00;102525.81;5021182;28;20059;-83
2023/09/03 03:25:38;;;;;;;9.45;5.97;;;;;;;14.20;100.00;102528.28;5023704;28;20501;-83
2023/09/03 03:28:04;;;;;;;10.07;6.63;;;;;;;14.18;100.00;102544.72;5016866;28;20091;-84
2023/09/03 03:30:29;;;;;;;9.73;6.03;;;;;;;14.17;100.00;102543.09;5001771;28;20090;-83
2023/09/03 03:32:54;;;;;;;9.40;6.00;;;;;;;14.12;100.00;102551.81;5022592;28;20482;-83
2023/09/03 03:35:20;;;;;;;10.98;5.78;;;;;;;14.13;100.00;102543.00;5009919;28;20029;-83
2023/09/03 03:37:45;;;;;;;9.32;5.95;;;;;;;14.19;100.00;102552.00;5020621;28;20049;-83
2023/09/03 03:40:11;;;;;;;7.80;5.57;;;;;;;14.12;100.00;102540.53;5008378;28;20029;-83
2023/09/03 03:42:36;;;;;;;9.15;6.35;;;;;;;14.09;100.00;102541.28;5020865;28;20477;-84
2023/09/03 03:45:02;;;;;;;8.82;5.88;;;;;;;14.10;100.00;102535.25;5024127;28;20036;-83
2023/09/03 03:47:28;;;;;;;9.68;6.32;;;;;;;13.94;100.00;102523.19;5009666;28;20022;-83
2023/09/03 03:49:53;;;;;;;10.15;5.90;;;;;;;13.97;100.00;102523.25;5025986;28;20509;-83
2023/09/03 03:52:18;;;;;;;8.82;5.22;;;;;;;14.10;100.00;102534.44;5021236;28;20075;-83
2023/09/03 03:54:44;;;;;;;8.98;5.40;;;;;;;14.03;100.00;102513.38;5027393;28;20436;-83
2023/09/03 03:57:09;;;;;;;11.27;6.38;;;;;;;14.08;100.00;102517.09;5025250;28;20103;-83
2023/09/03 03:59:35;;;;;;;9.20;6.03;;;;;;;14.00;100.00;102508.47;5024775;28;20378;-83
2023/09/03 04:02:00;;;;;;;9.93;5.68;;;;;;;13.95;100.00;102513.56;5028498;28;20104;-83
2023/09/03 04:04:26;;;;;;;11.18;7.03;;;;;;;13.93;100.00;102511.09;5009344;28;20041;-83
2023/09/03 04:06:51;;;;;;;10.63;6.38;;;;;;;13.87;100.00;102522.97;5026744;28;20037;-83
2023/09/03 04:09:16;;;;;;;10.20;6.65;;;;;;;13.91;100.00;102527.53;5023256;28;20087;-83
2023/09/03 04:11:42;;;;;;;9.60;5.60;;;;;;;13.93;100.00;102530.78;5025550;28;20057;-84
2023/09/03 04:14:07;;;;;;;10.82;6.13;;;;;;;13.92;100.00;102536.81;4995649;28;22063;-83
2023/09/03 04:16:33;;;;;;;8.73;5.53;;;;;;;13.89;100.00;102545.97;4967770;28;20039;-83
2023/09/03 04:18:58;;;;;;;9.43;6.30;;;;;;;13.97;100.00;102557.03;4977936;28;20437;-83
2023/09/03 04:21:23;;;;;;;10.15;6.05;;;;;;;13.90;100.00;102556.06;4981109;28;20482;-83
2023/09/03 04:23:49;;;;;;;11.68;6.85;;;;;;;13.77;100.00;102552.47;4975498;28;20038;-83
2023/09/03 04:26:14;;;;;;;9.85;6.07;;;;;;;13.80;100.00;102568.63;4977253;28;20487;-83
2023/09/03 04:28:40;;;;;;;10.57;5.57;;;;;;;13.83;100.00;102559.50;4976281;28;20558;-82
2023/09/03 04:31:08;;;;;;;11.90;6.35;;;;;;;13.87;100.00;102557.59;4986433;28;20041;-83
2023/09/03 04:33:36;;;;;;;9.65;6.35;;;;;;;13.88;100.00;102553.59;4976390;28;20521;-83
2023/09/03 04:36:03;;;;;;;10.43;6.55;;;;;;;13.88;100.00;102559.22;4998230;28;20037;-83
2023/09/03 04:38:29;;;;;;;10.88;7.53;;;;;;;13.82;100.00;102566.28;4981487;28;20429;-83
2023/09/03 04:40:56;;;;;;;10.43;6.28;;;;;;;13.80;100.00;102582.72;4980267;28;20046;-84
2023/09/03 04:43:23;;;;;;;9.77;6.13;;;;;;;13.79;100.00;102579.09;4975991;28;20097;-83
2023/09/03 04:45:50;;;;;;;12.40;6.35;;;;;;;13.86;100.00;102583.28;4979214;28;20084;-83
2023/09/03 04:48:17;;;;;;;9.90;5.65;;;;;;;13.73;100.00;102574.06;4993440;28;20540;-83
2023/09/03 04:50:43;;;;;;;7.60;5.00;;;;;;;13.78;100.00;102579.44;4980296;28;20041;-83
2023/09/03 04:53:09;;;;;;;9.10;5.45;;;;;;;13.71;100.00;102565.19;4986238;28;20034;-83
2023/09/03 04:55:35;;;;;;;8.63;6.18;;;;;;;13.76;100.00;102574.16;4983332;28;20036;-83
2023/09/03 04:58:01;;;;;;;8.77;5.88;;;;;;;13.81;100.00;102587.19;4982927;28;20018;-83
2023/09/03 05:00:30;;;;;;;9.63;5.60;;;;;;;13.76;100.00;102584.59;4981636;28;20045;-83
2023/09/03 05:02:56;;;;;;;8.32;5.43;;;;;;;13.60;100.00;102582.56;4978753;28;20041;-83
2023/09/03 05:05:21;;;;;;;11.13;6.30;;;;;;;13.67;100.00;102587.56;4994647;28;20626;-83
2023/09/03 05:07:47;;;;;;;7.43;5.25;;;;;;;13.75;100.00;102599.88;4982194;28;20117;-83
2023/09/03 05:10:13;;;;;;;8.75;5.80;;;;;;;13.76;100.00;102605.13;4979139;28;20038;-83
2023/09/03 05:12:42;;;;;;;8.43;5.40;;;;;;;13.73;100.00;102605.03;4980413;28;20038;-84
2023/09/03 05:15:09;;;;;;;7.30;5.47;;;;;;;13.62;100.00;102608.34;4993872;28;20402;-83
2023/09/03 05:17:34;;;;;;;8.00;5.93;;;;;;;13.67;100.00;102614.91;4980843;28;20037;-83
2023/09/03 05:19:59;;;;;;;8.27;4.72;;;;;;;13.75;100.00;102616.75;4981315;28;20038;-82
2023/09/03 05:22:25;;;;;;;6.13;4.25;;;;;;;13.70;100.00;102614.97;4976440;28;20450;-83
2023/09/03 05:24:50;;;;;;;7.85;5.22;;;;;;;13.69;100.00;102629.44;4981998;28;20026;-83
2023/09/03 05:27:16;;;;;;;7.60;5.07;;;;;;;13.77;100.00;102636.91;4982728;28;20461;-83
2023/09/03 05:29:41;;;;;;;7.68;5.10;;;;;;;13.72;100.00;102625.88;4981038;28;20030;-83
2023/09/03 05:32:06;;;;;;;7.10;4.72;;;;;;;13.77;100.00;102636.91;4985299;28;20037;-83
2023/09/03 05:34:32;;;;;;;8.07;4.97;;;;;;;13.81;100.00;102649.09;4986981;28;20030;-83
2023/09/03 05:36:57;;;;;;;6.50;4.53;;;;;;;13.82;100.00;102650.72;5001987;28;20109;-82
2023/09/03 05:39:23;;;;;;;7.18;4.60;;;;;;;13.83;100.00;102646.75;4988145;28;20519;-83
2023/09/03 05:41:48;;;;;;;10.13;5.43;;;;;;;13.86;100.00;102651.66;4989649;28;20034;-83
2023/09/03 05:44:15;;;;;;;7.93;5.22;;;;;;;13.87;100.00;102658.94;4987999;28;20038;-83
2023/09/03 05:46:41;;;;;;;6.97;4.72;;;;;;;13.91;100.00;102659.81;4986837;28;20032;-83
2023/09/03 05:49:06;;;;;;;9.13;4.95;;;;;;;13.85;100.00;102666.91;4996591;28;20030;-83
2023/09/03 05:51:32;;;;;;;7.25;4.35;;;;;;;13.90;100.00;102680.72;4991979;28;20030;-83
2023/09/03 05:53:57;;;;;;;6.40;4.18;;;;;;;13.89;100.00;102681.88;4989350;28;20598;-82
2023/09/03 05:56:23;;;;;;;5.63;3.80;;;;;;;13.93;100.00;102671.53;4987721;28;20030;-83
2023/09/03 05:58:50;;;;;;;5.22;3.85;;;;;;;13.95;100.00;102683.28;4986078;28;20029;-82
2023/09/03 06:01:16;;;;;;;4.90;4.40;;;;;;;14.00;100.00;102690.66;4979888;28;20049;-83
2023/09/03 06:03:42;;;;;;;6.50;4.28;;;;;;;13.99;100.00;102672.94;4979394;28;20438;-84
2023/09/03 06:06:09;;;;;;;4.78;3.70;;;;;;;14.03;100.00;102673.03;4997034;28;20028;-83
2023/09/03 06:08:36;;;;;;;6.18;3.83;;;;;;;14.12;100.00;102678.53;4997386;28;20093;-83
2023/09/03 06:11:03;;;;;;;6.50;4.43;;;;;;;14.16;100.00;102671.00;4986797;28;20026;-82
2023/09/03 06:13:30;;;;;;;6.97;4.40;;;;;;;14.16;100.00;102682.25;4992438;28;20103;-83
2023/09/03 06:15:56;;;;;;;7.03;3.92;;;;;;;14.15;100.00;102663.75;5023808;28;20542;-83
2023/09/03 06:18:22;;;;;;;5.43;4.00;;;;;;;14.21;100.00;102673.56;5018998;28;20029;-83
2023/09/03 06:20:48;;;;;;;5.53;4.35;;;;;;;14.21;100.00;102668.75;5022980;28;20048;-84
2023/09/03 06:23:15;;;;;;;5.82;4.15;;;;;;;14.23;100.00;102674.03;5008940;28;20496;-83
2023/09/03 06:25:42;;;;;;;6.70;4.25;;;;;;;14.30;100.00;102693.13;5001758;28;20039;-83
2023/09/03 06:28:08;;;;;;;6.82;3.88;;;;;;;14.34;100.00;102686.41;5023893;28;20195;-83
2023/09/03 06:30:34;;;;;;;7.13;4.30;;;;;;;14.34;100.00;102686.41;5005795;28;20034;-83
2023/09/03 06:32:59;;;;;;;9.82;5.68;;;;;;;14.29;100.00;102681.00;5004470;28;20103;-83
2023/09/03 06:35:25;;;;;;;8.02;5.18;;;;;;;14.33;100.00;102681.94;5007061;28;20037;-83
2023/09/03 06:37:50;;;;;;;5.57;4.13;;;;;;;14.40;100.00;102687.78;5020755;28;20061;-83
2023/09/03 06:40:16;;;;;;;10.98;7.25;;;;;;;14.39;100.00;102683.31;5010088;28;20405;-82
2023/09/03 06:42:42;;;;;;;8.43;5.03;;;;;;;14.32;100.00;102697.22;5003638;28;20045;-83
2023/09/03 06:45:08;;;;;;;8.45;5.68;;;;;;;14.46;100.00;102701.59;5025330;28;20025;-83
2023/09/03 06:47:34;;;;;;;12.77;8.77;;;;;;;14.51;100.00;102698.53;5007670;28;20287;-83
2023/09/03 06:49:59;;;;;;;14.52;9.18;;;;;;;14.42;100.00;102701.53;5007691;28;20029;-83
2023/09/03 06:52:24;;;;;;;16.83;10.23;;;;;;;14.31;100.00;102703.19;5021686;28;20036;-86
2023/09/03 06:54:50;;;;;;;15.57;9.05;;;;;;;14.25;100.00;102697.00;5018992;28;20025;-83
2023/09/03 06:57:16;;;;;;;18.70;11.40;;;;;;;14.32;100.00;102708.47;5021379;28;20386;-83
2023/09/03 06:59:42;;;;;;;19.38;10.88;;;;;;;14.31;100.00;102706.00;5023813;28;20529;-83
2023/09/03 07:02:08;;;;;;;18.00;10.52;;;;;;;14.34;100.00;102723.03;5020490;28;20037;-82
2023/09/03 07:04:34;;;;;;;8.85;5.55;;;;;;;14.59;100.00;102725.75;5022453;28;20041;-85
2023/09/03 07:07:00;;;;;;;12.07;8.00;;;;;;;14.91;100.00;102723.78;5018744;28;20155;-90
2023/09/03 07:09:29;;;;;;;10.80;6.28;;;;;;;15.24;100.00;102714.97;5009006;28;20033;-92
2023/09/03 07:11:54;;;;;;;8.85;5.80;;;;;;;16.17;100.00;102709.78;5020822;28;20120;-91
2023/09/03 07:14:20;;;;;;;6.65;4.60;;;;;;;16.75;100.00;102721.00;5004215;28;20136;-92
2023/09/03 07:16:45;;;;;;;11.75;5.10;;;;;;;17.08;100.00;102722.44;5004556;28;20063;-92
2023/09/03 07:19:11;;;;;;;9.10;5.78;;;;;;;16.95;100.00;102710.50;5010404;28;20133;-91
2023/09/03 07:21:36;;;;;;;9.38;6.20;;;;;;;16.91;100.00;102729.41;5006372;28;20041;-91
2023/09/03 07:24:02;;;;;;;13.05;9.65;;;;;;;16.22;100.00;102730.06;5004907;28;20033;-92
2023/09/03 07:26:27;;;;;;;13.43;7.75;;;;;;;16.19;100.00;102718.69;5003921;28;20028;-92
2023/09/03 07:28:52;;;;;;;9.73;5.82;;;;;;;16.71;100.00;102711.63;5019730;28;20045;-92
2023/09/03 07:31:18;;;;;;;9.32;5.50;;;;;;;17.04;100.00;102724.38;5007374;28;20025;-91
2023/09/03 07:33:44;;;;;;;14.07;8.32;;;;;;;16.04;100.00;102707.13;5003290;28;20040;-93
2023/09/03 07:36:11;;;;;;;14.23;7.15;;;;;;;15.73;100.00;102701.59;5017764;28;20528;-92
2023/09/03 07:38:37;;;;;;;14.52;9.13;;;;;;;15.62;100.00;102730.38;5005339;28;20172;-94
2023/09/03 07:41:03;;;;;;;14.05;9.38;;;;;;;15.62;100.00;102740.81;5008458;28;20029;-91
2023/09/03 07:43:29;;;;;;;13.23;8.95;;;;;;;15.71;100.00;102726.53;5023459;28;20069;-91
2023/09/03 07:45:55;;;;;;;14.35;7.90;;;;;;;16.12;100.00;102729.84;5005828;28;20032;-92
2023/09/03 07:48:20;;;;;;;9.65;7.30;;;;;;;16.63;100.00;102726.81;5005549;28;20029;-92
2023/09/03 07:50:45;;;;;;;9.88;6.07;;;;;;;16.46;100.00;102728.97;5020579;28;20120;-92
2023/09/03 07:53:11;;;;;;;10.38;6.40;;;;;;;16.63;100.00;102727.66;5006270;28;20501;-92
2023/09/03 07:55:37;;;;;;;11.35;5.90;;;;;;;17.08;100.00;102730.91;5019523;28;20053;-88
2023/09/03 07:58:02;;;;;;;9.95;6.63;;;;;;;16.56;100.00;102729.53;5021639;28;20540;-88
2023/09/03 08:00:28;;;;;;;7.15;4.97;;;;;;;17.04;100.00;102727.22;5010322;28;20041;-88
2023/09/03 08:02:54;;;;;;;12.63;7.22;;;;;;;16.94;100.00;102730.66;5009102;28;20033;-88
2023/09/03 08:05:19;;;;;;;8.77;5.68;;;;;;;17.22;100.00;102735.97;5022905;28;20044;-88
2023/09/03 08:07:45;;;;;;;5.75;4.35;;;;;;;17.72;100.00;102724.63;5016699;28;20036;-89
2023/09/03 08:10:11;;;;;;;5.90;4.03;;;;;;;17.71;100.00;102728.63;5027850;28;20037;-88
2023/09/03 08:12:36;;;;;;;7.07;5.40;;;;;;;17.48;100.00;102738.03;5017459;28;20032;-86
2023/09/03 08:15:02;;;;;;;8.57;5.80;;;;;;;17.72;100.00;102735.94;4991761;28;20066;-86
2023/09/03 08:17:31;;;;;;;10.57;7.30;;;;;;;17.55;100.00;102740.97;5005479;28;20084;-85
2023/09/03 08:19:56;;;;;;;8.80;4.07;;;;;;;17.80;100.00;102737.69;4979328;28;20049;-85
2023/09/03 08:22:22;;;;;;;7.28;4.20;;;;;;;17.85;100.00;102740.19;4995578;28;20053;-88
2023/09/03 08:24:47;;;;;;;7.20;3.83;;;;;;;18.03;100.00;102757.47;4986594;28;20371;-86
2023/09/03 08:27:14;;;;;;;5.13;4.03;;;;;;;18.04;100.00;102748.56;5006923;28;20072;-85
2023/09/03 08:29:39;;;;;;;7.68;5.22;;;;;;;17.89;100.00;102755.25;4985033;28;20038;-86
2023/09/03 08:32:05;;;;;;;8.23;3.78;;;;;;;17.99;100.00;102759.44;4990951;28;20501;-86
2023/09/03 08:34:30;;;;;;;8.65;4.40;;;;;;;17.89;100.00;102752.41;4990372;28;20033;-86
2023/09/03 08:36:55;;;;;;;7.97;4.60;;;;;;;17.83;100.00;102751.09;4991172;28;20033;-86
2023/09/03 08:39:21;;;;;;;7.50;4.82;;;;;;;17.31;100.00;102745.03;4989297;28;20172;-86
2023/09/03 08:41:47;;;;;;;4.45;4.00;;;;;;;17.75;100.00;102743.66;4993150;28;20046;-86
2023/09/03 08:44:36;;;;;;;8.40;3.60;;;;;;;17.93;100.00;102750.44;4988803;28;20475;-86
2023/09/03 08:47:09;;;;;;;6.63;4.60;;;;;;;17.60;100.00;102754.81;5001699;28;20121;-86
2023/09/03 08:49:38;;;;;;;5.72;3.28;;;;;;;17.45;100.00;102753.75;4985591;28;20096;-86
2023/09/03 08:52:04;;;;;;;8.23;4.70;;;;;;;17.23;100.00;102757.44;4992241;28;20030;-86
2023/09/03 08:54:29;;;;;;;6.40;3.83;;;;;;;17.51;100.00;102761.94;4990451;28;20133;-86
2023/09/03 08:56:55;;;;;;;6.10;3.60;;;;;;;17.56;100.00;102756.75;4986941;28;20026;-86
2023/09/03 08:59:21;;;;;;;7.93;3.58;;;;;;;17.54;100.00;102762.00;4984907;28;20036;-86
2023/09/03 09:01:51;;;;;;;7.75;3.97;;;;;;;17.55;100.00;102754.31;4986420;28;20034;-86
2023/09/03 09:04:16;;;;;;;3.70;2.45;;;;;;;17.88;100.00;102768.59;4989286;28;20030;-85
2023/09/03 09:06:43;;;;;;;5.60;3.53;;;;;;;17.87;100.00;102766.13;4987144;28;20084;-85
2023/09/03 09:09:10;;;;;;;5.63;2.95;;;;;;;17.84;100.00;102762.06;4989109;28;20125;-85
2023/09/03 09:11:42;;;;;;;4.78;2.78;;;;;;;17.61;100.00;102759.25;4989469;28;20030;-84
2023/09/03 09:14:33;;;;;;;6.30;3.35;;;;;;;17.56;100.00;102773.75;5000095;28;20132;-84
2023/09/03 09:16:59;;;;;;;7.28;2.65;;;;;;;18.12;100.00;102774.97;4997423;28;20392;-85
2023/09/03 09:19:24;;;;;;;4.35;2.72;;;;;;;18.38;100.00;102773.28;4981713;28;20080;-86
2023/09/03 09:21:51;;;;;;;3.60;2.58;;;;;;;18.35;100.00;102780.53;4980825;28;20038;-85
2023/09/03 09:24:16;;;;;;;5.95;3.72;;;;;;;18.16;100.00;102767.34;4997600;28;20112;-94
2023/09/03 09:26:41;;;;;;;8.25;3.72;;;;;;;17.81;100.00;102756.31;4986423;28;20120;-94
2023/09/03 09:29:07;;;;;;;3.17;2.35;;;;;;;17.98;100.00;102755.78;4990295;28;20045;-91
2023/09/03 09:31:34;;;;;;;4.30;2.53;;;;;;;18.43;100.00;102772.94;4987359;28;20030;-90
2023/09/03 09:34:12;;;;;;;5.63;3.83;;;;;;;18.54;100.00;102775.91;4984928;28;20030;-85
2023/09/03 09:36:37;;;;;;;5.03;3.80;;;;;;;18.47;100.00;102770.97;5004964;28;20029;-84
2023/09/03 09:39:07;;;;;;;5.15;3.03;;;;;;;18.25;100.00;102775.56;4985699;28;20026;-84
2023/09/03 09:41:37;;;;;;;7.35;3.22;;;;;;;18.43;100.00;102778.63;4979624;28;20026;-84
2023/09/03 09:44:09;;;;;;;4.82;3.22;;;;;;;18.49;100.00;102786.41;4985185;28;20030;-87
2023/09/03 09:46:34;;;;;;;4.70;3.40;;;;;;;18.64;100.00;102792.25;4982035;28;20708;-88
2023/09/03 09:49:01;;;;;;;7.25;2.92;;;;;;;18.74;100.00;102791.56;4988805;28;20070;-88
2023/09/03 09:51:28;;;;;;;7.13;2.42;;;;;;;18.46;100.00;102797.69;4980372;28;20033;-89
2023/09/03 09:54:01;;;;;;;3.55;1.80;;;;;;;18.59;100.00;102793.38;4983503;28;20038;-88
2023/09/03 09:56:28;;;;;;;5.38;2.30;;;;;;;18.35;100.00;102797.56;4987706;28;20022;-89
2023/09/03 09:58:54;;;;;;;3.13;2.22;;;;;;;18.46;100.00;102792.81;4998170;28;20057;-87
2023/09/03 10:01:20;;;;;;;2.20;1.52;;;;;;;18.54;100.00;102802.25;4996374;28;20487;-88
2023/09/03 10:03:49;;;;;;;2.80;2.13;;;;;;;18.66;100.00;102806.84;4982813;28;20041;-88
2023/09/03 10:06:23;;;;;;;2.20;2.00;;;;;;;18.72;100.00;102805.31;4985811;28;20117;-87
2023/09/03 10:08:51;;;;;;;6.95;2.22;;;;;;;18.63;100.00;102801.94;4997652;28;20041;-86
2023/09/03 10:11:17;;;;;;;4.30;1.98;;;;;;;18.99;100.00;102808.84;4982744;28;20030;-88
2023/09/03 10:13:43;;;;;;;3.13;1.60;;;;;;;19.10;100.00;102811.81;4983950;28;20046;-88
2023/09/03 10:16:10;;;;;;;2.47;1.67;;;;;;;19.28;97.96;102815.63;4981823;28;20049;-87
2023/09/03 10:18:39;;;;;;;6.70;2.20;;;;;;;19.38;95.92;102813.28;4992586;28;20483;-88
2023/09/03 10:21:09;;;;;;;3.15;1.90;;;;;;;19.48;99.49;102818.25;4982226;28;20403;-88
2023/09/03 10:23:47;;;;;;;2.47;2.03;;;;;;;19.44;100.00;102811.72;4985552;28;20061;-88
2023/09/03 10:26:15;;;;;;;1.65;1.52;;;;;;;18.96;98.83;102809.63;4984298;28;20034;-88
2023/09/03 10:28:46;;;;;;;2.55;1.48;;;;;;;18.81;97.21;102807.84;4983859;28;20058;-87
2023/09/03 10:31:13;;;;;;;1.85;1.40;;;;;;;18.71;95.29;102806.50;4979508;28;20042;-87
2023/09/03 10:33:41;;;;;;;4.38;1.90;;;;;;;18.82;97.69;102798.94;4983433;28;20104;-87
2023/09/03 10:36:17;;;;;;;1.60;1.50;;;;;;;19.10;100.00;102803.31;4980918;28;20526;-86
2023/09/03 10:38:44;;;;;;;2.75;1.90;;;;;;;19.12;100.00;102803.72;4986312;28;20029;-89
2023/09/03 10:41:19;;;;;;;2.65;1.75;;;;;;;19.25;100.00;102798.56;4987787;28;20030;-87
2023/09/03 10:43:49;;;;;;;4.10;2.10;;;;;;;19.08;97.79;102809.34;4973355;28;20030;-89
2023/09/03 10:46:15;;;;;;;3.85;1.70;;;;;;;19.30;97.19;102812.38;5000514;28;20031;-87
2023/09/03 10:48:50;;;;;;;2.30;1.48;;;;;;;19.25;97.21;102809.94;4991689;28;20082;-87
2023/09/03 10:51:39;;;;;;;2.67;1.52;;;;;;;19.37;98.81;102826.63;4993979;28;20376;-88
2023/09/03 10:54:20;;;;;;;1.95;1.40;;;;;;;19.37;97.83;102823.00;4982044;28;20026;-86
2023/09/03 10:57:03;;;;;;;3.80;1.85;;;;;;;19.45;96.20;102819.00;4977999;28;20041;-87
2023/09/03 10:59:57;;;;;;;3.95;2.13;;;;;;;19.54;95.75;102825.16;4988885;28;20094;-88
2023/09/03 11:02:27;;;;;;;1.92;1.60;;;;;;;19.42;94.72;102809.25;4991976;28;20031;-88
2023/09/03 11:05:09;;;;;;;2.40;1.60;;;;;;;19.38;95.42;102813.28;5006908;28;20034;-87
2023/09/03 11:07:34;;;;;;;2.90;1.52;;;;;;;19.73;95.68;102806.28;5008526;28;20029;-88
2023/09/03 11:10:27;;;;;;;3.35;2.08;;;;;;;19.82;96.15;102806.75;4991508;28;20042;-88
2023/09/03 11:12:53;;;;;;;3.70;2.13;;;;;;;20.01;94.87;102805.66;4990437;28;20027;-88
2023/09/03 11:15:19;;;;;;;5.10;1.58;;;;;;;19.95;95.68;102801.56;5011977;28;20052;-89
2023/09/03 11:17:56;;;;;;;2.17;1.60;;;;;;;19.98;93.94;102807.25;5015040;28;20120;-88